createdAt,value
2022-10-23T00:02:16.661Z,4.45
2022-10-23T00:04:53.865Z,4.55
2022-10-23T00:07:47.382Z,4.20
2022-10-23T00:10:37.017Z,3.67
2022-10-23T00:13:18.208Z,3.50
2022-10-23T00:15:57.013Z,3.85
2022-10-23T00:24:00.535Z,3.72
2022-10-23T00:26:40.339Z,3.17
2022-10-23T00:29:38.983Z,3.03
2022-10-23T00:32:18.912Z,3.60
2022-10-23T00:37:51.479Z,3.42
2022-10-23T00:40:38.727Z,4.13
2022-10-23T00:43:26.578Z,3.47
2022-10-23T00:46:20.744Z,3.40
2022-10-23T00:49:06.047Z,3.47
2022-10-23T00:52:06.803Z,3.85
2022-10-23T00:55:05.732Z,3.22
2022-10-23T00:58:00.700Z,3.72
2022-10-23T01:01:01.301Z,4.18
2022-10-23T01:03:48.837Z,3.35
2022-10-23T01:06:41.183Z,3.13
2022-10-23T01:09:47.707Z,3.17
2022-10-23T01:12:42.355Z,3.25
2022-10-23T01:15:50.587Z,3.35
2022-10-23T01:18:32.614Z,3.70
2022-10-23T01:21:50.273Z,3.55
2022-10-23T01:24:45.219Z,4.22
2022-10-23T01:27:34.997Z,3.63
2022-10-23T01:30:33.707Z,3.83
2022-10-23T01:33:20.065Z,2.97
2022-10-23T01:36:09.232Z,2.92
2022-10-23T01:41:56.052Z,2.83
2022-10-23T01:44:56.272Z,2.80
2022-10-23T01:47:45.170Z,2.80
2022-10-23T01:50:36.150Z,2.58
2022-10-23T01:56:23.466Z,2.50
2022-10-23T01:59:02.059Z,2.20
2022-10-23T02:02:08.623Z,2.22
2022-10-23T02:04:58.564Z,2.65
2022-10-23T02:07:45.821Z,2.50
2022-10-23T02:10:33.158Z,2.40
2022-10-23T02:13:37.488Z,2.30
2022-10-23T02:16:36.271Z,2.20
2022-10-23T02:19:31.644Z,2.25
2022-10-23T02:22:33.138Z,2.30
2022-10-23T02:25:44.879Z,2.30
2022-10-23T02:32:32.409Z,2.60
2022-10-23T02:35:43.218Z,3.05
2022-10-23T02:39:05.283Z,3.05
2022-10-23T02:41:51.088Z,2.67
2022-10-23T02:44:51.629Z,2.22
2022-10-23T02:50:50.453Z,3.22
2022-10-23T02:53:47.280Z,2.53
2022-10-23T02:56:30.290Z,2.90
2022-10-23T02:59:23.179Z,2.38
2022-10-23T03:02:07.138Z,2.10
2022-10-23T03:04:59.763Z,2.67
2022-10-23T03:07:51.743Z,2.30
2022-10-23T03:10:36.593Z,2.70
2022-10-23T03:13:18.662Z,2.53
2022-10-23T03:16:08.813Z,2.60
2022-10-23T03:18:47.668Z,3.42
2022-10-23T03:21:31.260Z,2.70
2022-10-23T03:24:18.435Z,2.10
2022-10-23T03:26:55.271Z,3.30
2022-10-23T03:29:49.727Z,2.50
2022-10-23T03:32:37.070Z,2.85
2022-10-23T03:35:14.924Z,3.25
2022-10-23T03:37:58.757Z,2.78
2022-10-23T03:40:39.391Z,2.58
2022-10-23T03:43:16.491Z,2.53
2022-10-23T03:46:02.405Z,2.90
2022-10-23T03:48:42.019Z,2.80
2022-10-23T03:54:45.181Z,2.60
2022-10-23T03:57:42.270Z,2.25
2022-10-23T04:00:31.350Z,2.78
2022-10-23T04:03:11.628Z,2.70
2022-10-23T04:05:52.353Z,2.47
2022-10-23T04:08:32.296Z,2.58
2022-10-23T04:11:16.161Z,2.47
2022-10-23T04:13:54.378Z,2.70
2022-10-23T04:16:35.576Z,2.42
2022-10-23T04:19:28.190Z,2.53
2022-10-23T04:22:24.747Z,2.58
2022-10-23T04:25:20.296Z,2.22
2022-10-23T04:28:21.831Z,2.97
2022-10-23T04:31:03.982Z,2.03
2022-10-23T04:33:44.991Z,2.40
2022-10-23T04:39:44.094Z,2.97
2022-10-23T04:45:30.382Z,3.00
2022-10-23T04:48:13.665Z,3.00
2022-10-23T04:50:50.643Z,2.70
2022-10-23T04:53:41.938Z,3.13
2022-10-23T04:56:33.383Z,2.63
2022-10-23T05:02:10.312Z,3.00
2022-10-23T05:05:03.800Z,2.53
2022-10-23T05:07:54.794Z,2.63
2022-10-23T05:10:31.596Z,2.55
2022-10-23T05:13:34.297Z,2.60
2022-10-23T05:16:53.628Z,2.35
2022-10-23T05:19:56.864Z,2.95
2022-10-23T05:22:57.411Z,2.92
2022-10-23T05:28:31.647Z,2.50
2022-10-23T05:31:31.943Z,4.93
2022-10-23T05:34:20.348Z,2.80
2022-10-23T05:37:08.783Z,2.70
2022-10-23T05:39:46.435Z,3.20
2022-10-23T05:42:31.877Z,2.78
2022-10-23T05:48:22.735Z,2.20
2022-10-23T05:51:14.870Z,2.70
2022-10-23T05:53:53.263Z,2.50
2022-10-23T05:56:41.645Z,2.15
2022-10-23T05:59:29.192Z,2.95
2022-10-23T06:02:45.831Z,2.80
2022-10-23T06:08:28.137Z,2.92
2022-10-23T06:11:06.000Z,2.67
2022-10-23T06:16:48.367Z,2.67
2022-10-23T06:19:45.970Z,2.38
2022-10-23T06:22:27.256Z,2.35
2022-10-23T06:25:06.473Z,2.50
2022-10-23T06:27:43.552Z,2.72
2022-10-23T06:30:55.963Z,2.97
2022-10-23T06:33:35.905Z,2.20
2022-10-23T06:36:57.943Z,2.20
2022-10-23T06:39:53.916Z,3.05
2022-10-23T06:42:36.152Z,2.30
2022-10-23T06:45:26.490Z,2.40
2022-10-23T06:48:07.699Z,2.75
2022-10-23T06:50:47.597Z,2.30
2022-10-23T06:56:23.329Z,2.05
2022-10-23T06:59:04.633Z,2.00
2022-10-23T07:01:43.084Z,2.30
2022-10-23T07:04:19.705Z,2.30
2022-10-23T07:06:59.717Z,2.28
2022-10-23T07:09:46.112Z,2.10
2022-10-23T07:12:23.662Z,2.30
2022-10-23T07:15:01.850Z,2.20
2022-10-23T07:17:41.076Z,2.45
2022-10-23T07:20:34.121Z,2.05
2022-10-23T07:23:11.177Z,2.88
2022-10-23T07:26:12.598Z,2.50
2022-10-23T07:29:01.618Z,2.30
2022-10-23T07:32:13.366Z,2.65
2022-10-23T07:35:29.066Z,2.28
2022-10-23T07:38:40.297Z,5.38
2022-10-23T07:42:00.004Z,3.80
2022-10-23T07:45:15.107Z,4.40
2022-10-23T07:48:27.373Z,4.35
2022-10-23T07:51:56.775Z,5.20
2022-10-23T07:55:43.735Z,4.85
2022-10-23T07:58:59.227Z,5.03
2022-10-23T08:02:15.876Z,10.25
2022-10-23T08:05:39.902Z,7.07
2022-10-23T08:12:23.909Z,10.50
2022-10-23T08:15:37.427Z,8.82
2022-10-23T08:19:06.237Z,18.60
2022-10-23T08:22:19.962Z,7.25
2022-10-23T08:29:06.988Z,6.00
2022-10-23T08:32:16.061Z,4.30
2022-10-23T08:35:33.377Z,4.18
2022-10-23T08:38:47.119Z,4.32
2022-10-23T08:41:58.483Z,3.83
2022-10-23T08:45:18.883Z,3.42
2022-10-23T08:48:45.822Z,4.32
2022-10-23T08:52:08.076Z,2.80
2022-10-23T08:59:13.534Z,3.70
2022-10-23T09:02:37.224Z,3.92
2022-10-23T09:09:33.355Z,3.45
2022-10-23T09:12:56.116Z,5.05
2022-10-23T09:16:14.048Z,4.95
2022-10-23T09:19:34.219Z,4.57
2022-10-23T09:22:44.531Z,5.60
2022-10-23T09:26:07.358Z,6.80
2022-10-23T09:29:26.184Z,4.65
2022-10-23T09:32:37.068Z,7.90
2022-10-23T09:35:56.765Z,15.32
2022-10-23T09:39:22.957Z,10.57
2022-10-23T09:42:08.656Z,6.50
2022-10-23T09:45:12.108Z,9.10
2022-10-23T09:47:58.774Z,4.45
2022-10-23T09:50:53.781Z,5.72
2022-10-23T09:53:50.830Z,5.80
2022-10-23T09:57:19.178Z,5.85
2022-10-23T10:00:24.487Z,14.65
2022-10-23T10:03:12.141Z,11.35
2022-10-23T10:06:32.230Z,16.05
2022-10-23T10:09:37.269Z,9.40
2022-10-23T10:12:59.158Z,8.85
2022-10-23T10:15:42.839Z,8.05
2022-10-23T10:18:36.559Z,6.40
2022-10-23T10:21:32.306Z,6.30
2022-10-23T10:24:30.252Z,5.55
2022-10-23T10:30:17.478Z,4.57
2022-10-23T10:33:26.366Z,4.90
2022-10-23T10:36:14.993Z,5.00
2022-10-23T10:39:00.376Z,5.38
2022-10-23T10:41:55.107Z,10.90
2022-10-23T10:44:46.984Z,15.15
2022-10-23T10:47:52.222Z,9.93
2022-10-23T10:50:38.757Z,9.23
2022-10-23T10:53:27.244Z,9.05
2022-10-23T10:56:19.370Z,7.30
2022-10-23T10:59:11.214Z,9.10
2022-10-23T11:01:53.540Z,7.35
2022-10-23T11:07:52.710Z,5.32
2022-10-23T11:13:34.602Z,10.18
2022-10-23T11:16:21.791Z,9.05
2022-10-23T11:19:14.165Z,8.20
2022-10-23T11:22:07.744Z,7.38
2022-10-23T11:29:14.049Z,5.95
2022-10-23T11:32:14.599Z,6.30
2022-10-23T11:43:04.735Z,4.45
2022-10-23T11:46:00.043Z,4.68
2022-10-23T11:49:32.707Z,4.53
2022-10-23T11:52:30.251Z,8.57
2022-10-23T11:55:26.230Z,8.65
2022-10-23T11:58:45.225Z,7.10
2022-10-23T12:02:05.194Z,6.40
2022-10-23T12:04:55.116Z,7.60
2022-10-23T12:07:46.323Z,6.55
2022-10-23T12:14:09.024Z,7.30
2022-10-23T12:17:04.166Z,6.65
2022-10-23T12:23:35.782Z,4.90
2022-10-23T12:26:38.769Z,3.60
2022-10-23T12:29:30.509Z,5.53
2022-10-23T12:32:26.967Z,4.65
2022-10-23T12:38:41.375Z,4.78
2022-10-23T12:41:43.870Z,3.80
2022-10-23T12:44:23.531Z,4.75
2022-10-23T12:47:07.409Z,4.13
2022-10-23T12:49:56.527Z,3.78
2022-10-23T12:52:41.922Z,6.38
2022-10-23T12:55:53.625Z,5.50
2022-10-23T12:58:37.345Z,4.75
2022-10-23T13:04:25.520Z,5.00
2022-10-23T13:07:21.590Z,5.40
2022-10-23T13:10:17.832Z,6.43
2022-10-23T13:13:04.757Z,5.75
2022-10-23T13:16:04.681Z,5.45
2022-10-23T13:18:48.245Z,5.17
2022-10-23T13:21:33.019Z,5.07
2022-10-23T13:24:28.862Z,3.80
2022-10-23T13:27:05.090Z,4.22
2022-10-23T13:29:49.641Z,3.65
2022-10-23T13:32:37.184Z,2.95
2022-10-23T13:35:40.886Z,3.17
2022-10-23T13:38:19.029Z,3.30
2022-10-23T13:41:10.271Z,3.25
2022-10-23T13:44:02.497Z,3.70
2022-10-23T13:49:24.568Z,3.08
2022-10-23T13:52:27.642Z,4.22
2022-10-23T13:55:15.119Z,31.63
2022-10-23T13:57:54.494Z,9.93
2022-10-23T14:03:17.915Z,4.72
2022-10-23T14:06:12.624Z,3.70
2022-10-23T14:08:47.348Z,3.53
2022-10-23T14:11:27.479Z,3.75
2022-10-23T14:14:05.566Z,3.45
2022-10-23T14:16:46.773Z,3.40
2022-10-23T14:22:41.127Z,3.35
2022-10-23T14:25:36.668Z,3.45
2022-10-23T14:28:30.913Z,3.15
2022-10-23T14:37:23.355Z,3.00
2022-10-23T14:40:13.703Z,2.75
2022-10-23T14:42:55.677Z,2.95
2022-10-23T14:45:35.880Z,2.70
2022-10-23T14:48:12.550Z,3.15
2022-10-23T14:51:13.697Z,2.50
2022-10-23T14:54:16.198Z,2.85
2022-10-23T15:02:27.234Z,2.50
2022-10-23T15:05:18.520Z,2.55
2022-10-23T15:08:10.415Z,2.70
2022-10-23T15:10:55.851Z,2.42
2022-10-23T15:13:39.558Z,2.97
2022-10-23T15:16:35.560Z,2.80
2022-10-23T15:19:18.730Z,2.83
2022-10-23T15:22:17.199Z,2.72
2022-10-23T15:24:59.904Z,2.83
2022-10-23T15:27:43.167Z,2.83
2022-10-23T15:30:36.911Z,2.90
2022-10-23T15:33:19.166Z,2.92
2022-10-23T15:36:09.549Z,2.53
2022-10-23T15:39:00.797Z,2.65
2022-10-23T15:41:53.440Z,3.03
2022-10-23T15:44:36.560Z,2.80
2022-10-23T15:47:15.336Z,2.70
2022-10-23T15:50:01.726Z,2.97
2022-10-23T15:52:59.587Z,2.67
2022-10-23T15:55:44.168Z,2.80
2022-10-23T16:14:10.282Z,2.42
2022-10-23T16:16:47.343Z,2.70
2022-10-23T16:22:41.289Z,2.30
2022-10-23T16:25:36.114Z,2.75
2022-10-23T16:28:18.520Z,2.60
2022-10-23T16:31:09.174Z,3.35
2022-10-23T16:36:47.042Z,2.80
2022-10-23T16:39:27.660Z,2.55
2022-10-23T16:45:03.056Z,2.60
2022-10-23T16:50:53.785Z,2.50
2022-10-23T16:53:36.472Z,2.55
2022-10-23T16:56:20.157Z,2.80
2022-10-23T16:59:05.955Z,2.92
2022-10-23T17:01:50.948Z,2.50
2022-10-23T17:04:40.004Z,2.72
2022-10-23T17:07:51.916Z,2.65
2022-10-23T17:10:36.260Z,2.42
2022-10-23T17:13:22.931Z,2.65
2022-10-23T17:19:08.372Z,2.65
2022-10-23T17:21:50.454Z,2.67
2022-10-23T17:24:37.068Z,2.80
2022-10-23T17:27:31.315Z,2.67
2022-10-23T17:30:42.535Z,2.70
2022-10-23T17:33:22.085Z,2.85
2022-10-23T17:36:01.949Z,2.63
2022-10-23T18:26:57.726Z,2.97
2022-10-23T18:33:14.186Z,2.78
2022-10-23T18:35:57.715Z,2.90
2022-10-23T18:38:46.335Z,2.70
2022-10-23T18:41:34.064Z,2.70
2022-10-23T18:44:34.377Z,3.28
2022-10-23T18:47:24.670Z,3.22
2022-10-23T18:50:11.637Z,2.90
2022-10-23T18:53:08.696Z,3.50
2022-10-23T18:55:51.973Z,3.00
2022-10-23T18:58:40.779Z,3.42
2022-10-23T19:01:32.665Z,2.80
2022-10-23T19:04:17.999Z,2.75
2022-10-23T19:07:02.475Z,2.90
2022-10-23T19:09:56.696Z,2.88
2022-10-23T19:12:45.173Z,3.05
2022-10-23T19:15:35.310Z,3.03
2022-10-23T19:18:38.231Z,3.63
2022-10-23T19:21:22.129Z,3.03
2022-10-23T19:24:05.076Z,3.10
2022-10-23T19:26:55.093Z,3.15
2022-10-23T19:32:18.040Z,3.00
2022-10-23T19:35:03.942Z,3.50
2022-10-23T19:37:47.496Z,3.40
2022-10-23T19:40:39.577Z,3.33
2022-10-23T19:43:50.915Z,3.55
2022-10-23T19:46:43.458Z,3.20
2022-10-23T19:49:44.836Z,3.50
2022-10-23T19:52:50.779Z,3.83
2022-10-23T19:55:41.062Z,3.30
2022-10-23T19:58:29.502Z,3.08
2022-10-23T20:01:35.005Z,3.45
2022-10-23T20:04:52.357Z,3.78
2022-10-23T20:07:35.731Z,4.03
2022-10-23T20:10:27.894Z,3.25
2022-10-23T20:13:22.829Z,3.40
2022-10-23T20:16:07.996Z,3.95
2022-10-23T20:19:04.102Z,3.85
2022-10-23T20:21:51.161Z,3.28
2022-10-23T20:24:45.165Z,3.95
2022-10-23T20:30:06.576Z,3.45
2022-10-23T20:32:48.295Z,2.92
2022-10-23T20:35:25.766Z,3.50
2022-10-23T20:38:06.712Z,3.33
2022-10-23T20:40:58.567Z,3.47
2022-10-23T20:43:42.411Z,3.35
2022-10-23T20:49:39.849Z,3.65
2022-10-23T20:52:21.553Z,3.58
2022-10-23T20:55:15.634Z,4.00
2022-10-23T20:58:01.003Z,3.67
2022-10-23T21:00:47.227Z,4.00
2022-10-23T21:03:26.991Z,2.90
2022-10-23T21:06:12.031Z,3.42
2022-10-23T21:08:58.012Z,4.40
2022-10-23T21:11:46.944Z,3.58
2022-10-23T21:14:21.688Z,4.13
2022-10-23T21:17:18.498Z,3.08
2022-10-23T21:19:57.249Z,3.50
2022-10-23T21:23:00.493Z,3.88
2022-10-23T21:29:13.743Z,3.65
2022-10-23T21:32:18.339Z,3.60
2022-10-23T21:35:25.350Z,3.40
2022-10-23T21:38:34.291Z,3.40
2022-10-23T21:41:17.370Z,3.55
2022-10-23T21:44:14.649Z,3.80
2022-10-23T21:50:17.813Z,3.28
2022-10-23T21:53:44.546Z,3.17
2022-10-23T21:56:34.697Z,3.40
2022-10-23T21:59:29.120Z,3.72
2022-10-23T22:02:23.966Z,3.42
2022-10-23T22:04:58.815Z,3.90
2022-10-23T22:07:40.229Z,3.45
2022-10-23T22:10:31.424Z,3.25
2022-10-23T22:13:12.832Z,3.35
2022-10-23T22:18:57.790Z,3.45
2022-10-23T22:21:42.651Z,3.10
2022-10-23T22:24:20.442Z,3.17
2022-10-23T22:27:19.340Z,3.78
2022-10-23T22:30:14.811Z,3.50
2022-10-23T22:32:52.442Z,3.30
2022-10-23T22:35:30.238Z,3.78
2022-10-23T22:41:03.789Z,3.95
2022-10-23T22:43:37.192Z,3.83
2022-10-23T22:46:36.832Z,3.78
2022-10-23T22:49:27.431Z,3.20
2022-10-23T22:52:25.339Z,3.30
2022-10-23T22:55:03.232Z,3.40
2022-10-23T22:57:57.125Z,3.65
2022-10-23T23:00:47.113Z,3.33
2022-10-23T23:03:32.241Z,3.53
2022-10-23T23:06:38.136Z,3.50
2022-10-23T23:09:20.556Z,4.18
2022-10-23T23:12:14.089Z,3.58
2022-10-23T23:14:59.128Z,3.60
2022-10-23T23:20:52.011Z,4.63
2022-10-23T23:23:34.758Z,4.20
2022-10-23T23:26:25.017Z,5.05
2022-10-23T23:29:18.310Z,4.50
2022-10-23T23:32:06.772Z,4.72
2022-10-23T23:35:12.776Z,4.65
2022-10-23T23:37:58.917Z,5.80
2022-10-23T23:41:05.853Z,4.30
2022-10-23T23:43:43.951Z,4.80
2022-10-23T23:46:31.657Z,3.92
2022-10-23T23:49:10.206Z,4.20
2022-10-23T23:52:03.211Z,3.53
2022-10-23T23:54:56.762Z,4.15
2022-10-23T23:57:37.077Z,3.53
